sensor_id;sensor_type;location;lat;lon;timestamp;P1;durP1;ratioP1;P2;durP2;ratioP2
2638;SDS011;1329;51.384;7.122;2023-01-26T00:01:42;68.27;;;36.50;;
2638;SDS011;1329;51.384;7.122;2023-01-26T00:04:10;62.70;;;33.63;;
2638;SDS011;1329;51.384;7.122;2023-01-26T00:06:41;63.53;;;36.13;;
2638;SDS011;1329;51.384;7.122;2023-01-26T00:09:11;69.00;;;37.63;;
2638;SDS011;1329;51.384;7.122;2023-01-26T00:11:40;66.17;;;35.87;;
2638;SDS011;1329;51.384;7.122;2023-01-26T00:14:09;67.90;;;36.30;;
2638;SDS011;1329;51.384;7.122;2023-01-26T00:16:36;63.03;;;34.53;;
2638;SDS011;1329;51.384;7.122;2023-01-26T00:19:04;67.00;;;35.67;;
2638;SDS011;1329;51.384;7.122;2023-01-26T00:21:31;66.07;;;36.90;;
2638;SDS011;1329;51.384;7.122;2023-01-26T00:23:58;67.87;;;35.80;;
2638;SDS011;1329;51.384;7.122;2023-01-26T00:26:26;67.53;;;36.77;;
2638;SDS011;1329;51.384;7.122;2023-01-26T00:28:58;65.37;;;34.37;;
2638;SDS011;1329;51.384;7.122;2023-01-26T00:31:30;65.87;;;36.27;;
2638;SDS011;1329;51.384;7.122;2023-01-26T00:34:00;63.30;;;34.80;;
2638;SDS011;1329;51.384;7.122;2023-01-26T00:36:27;62.73;;;35.37;;
2638;SDS011;1329;51.384;7.122;2023-01-26T00:38:58;64.17;;;34.20;;
2638;SDS011;1329;51.384;7.122;2023-01-26T00:41:27;66.07;;;34.47;;
2638;SDS011;1329;51.384;7.122;2023-01-26T00:44:13;65.43;;;34.37;;
2638;SDS011;1329;51.384;7.122;2023-01-26T00:46:41;67.60;;;35.83;;
2638;SDS011;1329;51.384;7.122;2023-01-26T00:49:09;66.57;;;33.87;;
2638;SDS011;1329;51.384;7.122;2023-01-26T00:51:36;66.03;;;34.57;;
2638;SDS011;1329;51.384;7.122;2023-01-26T00:54:07;66.93;;;34.00;;
2638;SDS011;1329;51.384;7.122;2023-01-26T00:56:34;66.40;;;35.07;;
2638;SDS011;1329;51.384;7.122;2023-01-26T00:59:01;68.40;;;35.30;;
2638;SDS011;1329;51.384;7.122;2023-01-26T01:01:30;65.10;;;34.47;;
2638;SDS011;1329;51.384;7.122;2023-01-26T01:03:59;61.10;;;33.70;;
2638;SDS011;1329;51.384;7.122;2023-01-26T01:06:26;63.23;;;34.17;;
2638;SDS011;1329;51.384;7.122;2023-01-26T01:08:54;67.57;;;34.63;;
2638;SDS011;1329;51.384;7.122;2023-01-26T01:11:26;63.00;;;32.87;;
2638;SDS011;1329;51.384;7.122;2023-01-26T01:13:55;61.73;;;32.60;;
2638;SDS011;1329;51.384;7.122;2023-01-26T01:16:23;65.63;;;33.67;;
2638;SDS011;1329;51.384;7.122;2023-01-26T01:18:54;65.03;;;33.50;;
2638;SDS011;1329;51.384;7.122;2023-01-26T01:21:24;62.07;;;32.77;;
2638;SDS011;1329;51.384;7.122;2023-01-26T01:23:51;62.23;;;32.83;;
2638;SDS011;1329;51.384;7.122;2023-01-26T01:26:19;56.63;;;30.90;;
2638;SDS011;1329;51.384;7.122;2023-01-26T01:28:46;57.87;;;30.97;;
2638;SDS011;1329;51.384;7.122;2023-01-26T01:31:14;56.30;;;29.87;;
2638;SDS011;1329;51.384;7.122;2023-01-26T01:33:43;55.00;;;29.00;;
2638;SDS011;1329;51.384;7.122;2023-01-26T01:36:14;56.20;;;30.13;;
2638;SDS011;1329;51.384;7.122;2023-01-26T01:38:45;59.90;;;31.07;;
2638;SDS011;1329;51.384;7.122;2023-01-26T01:41:14;54.43;;;29.90;;
2638;SDS011;1329;51.384;7.122;2023-01-26T01:43:44;56.83;;;30.17;;
2638;SDS011;1329;51.384;7.122;2023-01-26T01:46:14;57.07;;;30.00;;
2638;SDS011;1329;51.384;7.122;2023-01-26T01:48:53;61.03;;;30.90;;
2638;SDS011;1329;51.384;7.122;2023-01-26T01:51:27;57.20;;;29.50;;
2638;SDS011;1329;51.384;7.122;2023-01-26T01:54:01;54.63;;;29.73;;
2638;SDS011;1329;51.384;7.122;2023-01-26T01:56:33;54.23;;;29.17;;
2638;SDS011;1329;51.384;7.122;2023-01-26T01:59:03;55.67;;;29.33;;
2638;SDS011;1329;51.384;7.122;2023-01-26T02:01:36;55.03;;;28.73;;
2638;SDS011;1329;51.384;7.122;2023-01-26T02:04:03;53.53;;;29.53;;
2638;SDS011;1329;51.384;7.122;2023-01-26T02:06:34;59.00;;;31.17;;
2638;SDS011;1329;51.384;7.122;2023-01-26T02:09:07;56.97;;;28.63;;
2638;SDS011;1329;51.384;7.122;2023-01-26T02:11:57;53.37;;;29.07;;
2638;SDS011;1329;51.384;7.122;2023-01-26T02:14:24;55.70;;;29.80;;
2638;SDS011;1329;51.384;7.122;2023-01-26T02:16:54;57.60;;;30.07;;
2638;SDS011;1329;51.384;7.122;2023-01-26T02:19:22;55.50;;;28.57;;
2638;SDS011;1329;51.384;7.122;2023-01-26T02:21:59;54.30;;;28.87;;
2638;SDS011;1329;51.384;7.122;2023-01-26T02:24:35;55.53;;;29.00;;
2638;SDS011;1329;51.384;7.122;2023-01-26T02:27:06;57.70;;;29.80;;
2638;SDS011;1329;51.384;7.122;2023-01-26T02:29:33;53.53;;;27.90;;
2638;SDS011;1329;51.384;7.122;2023-01-26T02:32:00;56.33;;;29.10;;
2638;SDS011;1329;51.384;7.122;2023-01-26T02:34:27;56.33;;;29.13;;
2638;SDS011;1329;51.384;7.122;2023-01-26T02:36:55;58.00;;;28.37;;
2638;SDS011;1329;51.384;7.122;2023-01-26T02:39:26;59.23;;;29.67;;
2638;SDS011;1329;51.384;7.122;2023-01-26T02:42:07;58.43;;;29.60;;
2638;SDS011;1329;51.384;7.122;2023-01-26T02:44:52;53.03;;;28.47;;
2638;SDS011;1329;51.384;7.122;2023-01-26T02:47:19;54.80;;;29.33;;
2638;SDS011;1329;51.384;7.122;2023-01-26T02:49:46;58.20;;;29.00;;
2638;SDS011;1329;51.384;7.122;2023-01-26T02:52:12;55.63;;;28.37;;
2638;SDS011;1329;51.384;7.122;2023-01-26T02:54:40;57.47;;;29.23;;
2638;SDS011;1329;51.384;7.122;2023-01-26T02:57:26;59.10;;;29.67;;
2638;SDS011;1329;51.384;7.122;2023-01-26T02:59:53;59.87;;;30.47;;
2638;SDS011;1329;51.384;7.122;2023-01-26T03:02:20;58.33;;;29.73;;
2638;SDS011;1329;51.384;7.122;2023-01-26T03:04:47;60.53;;;31.50;;
2638;SDS011;1329;51.384;7.122;2023-01-26T03:07:14;64.03;;;32.13;;
2638;SDS011;1329;51.384;7.122;2023-01-26T03:09:41;65.60;;;31.97;;
2638;SDS011;1329;51.384;7.122;2023-01-26T03:12:08;65.13;;;32.10;;
2638;SDS011;1329;51.384;7.122;2023-01-26T03:14:37;65.13;;;32.70;;
2638;SDS011;1329;51.384;7.122;2023-01-26T03:17:04;65.57;;;32.93;;
2638;SDS011;1329;51.384;7.122;2023-01-26T03:19:30;65.40;;;32.03;;
2638;SDS011;1329;51.384;7.122;2023-01-26T03:22:14;61.67;;;30.73;;
2638;SDS011;1329;51.384;7.122;2023-01-26T03:25:10;63.07;;;31.30;;
2638;SDS011;1329;51.384;7.122;2023-01-26T03:27:55;61.63;;;31.73;;
2638;SDS011;1329;51.384;7.122;2023-01-26T03:30:23;64.93;;;31.60;;
2638;SDS011;1329;51.384;7.122;2023-01-26T03:32:50;61.03;;;30.77;;
2638;SDS011;1329;51.384;7.122;2023-01-26T03:35:17;62.47;;;31.50;;
2638;SDS011;1329;51.384;7.122;2023-01-26T03:37:46;61.90;;;31.73;;
2638;SDS011;1329;51.384;7.122;2023-01-26T03:40:18;60.67;;;30.93;;
2638;SDS011;1329;51.384;7.122;2023-01-26T03:43:06;61.40;;;32.30;;
2638;SDS011;1329;51.384;7.122;2023-01-26T03:45:52;62.83;;;31.40;;
2638;SDS011;1329;51.384;7.122;2023-01-26T03:48:37;60.20;;;30.70;;
2638;SDS011;1329;51.384;7.122;2023-01-26T03:51:22;61.47;;;32.00;;
2638;SDS011;1329;51.384;7.122;2023-01-26T03:54:06;61.57;;;30.90;;
2638;SDS011;1329;51.384;7.122;2023-01-26T03:56:51;64.33;;;30.97;;
2638;SDS011;1329;51.384;7.122;2023-01-26T03:59:18;60.37;;;30.53;;
2638;SDS011;1329;51.384;7.122;2023-01-26T04:02:03;65.53;;;30.73;;
2638;SDS011;1329;51.384;7.122;2023-01-26T04:04:48;61.23;;;30.37;;
2638;SDS011;1329;51.384;7.122;2023-01-26T04:07:33;62.47;;;30.60;;
2638;SDS011;1329;51.384;7.122;2023-01-26T04:10:17;66.10;;;31.77;;
2638;SDS011;1329;51.384;7.122;2023-01-26T04:12:44;64.87;;;31.33;;
2638;SDS011;1329;51.384;7.122;2023-01-26T04:15:29;66.93;;;30.83;;
2638;SDS011;1329;51.384;7.122;2023-01-26T04:18:15;62.93;;;31.23;;
2638;SDS011;1329;51.384;7.122;2023-01-26T04:21:00;60.53;;;30.00;;
2638;SDS011;1329;51.384;7.122;2023-01-26T04:23:45;61.70;;;30.93;;
2638;SDS011;1329;51.384;7.122;2023-01-26T04:26:12;63.60;;;31.07;;
2638;SDS011;1329;51.384;7.122;2023-01-26T04:28:39;66.27;;;32.53;;
2638;SDS011;1329;51.384;7.122;2023-01-26T04:31:06;63.43;;;31.40;;
2638;SDS011;1329;51.384;7.122;2023-01-26T04:33:35;65.73;;;31.47;;
2638;SDS011;1329;51.384;7.122;2023-01-26T04:36:02;64.30;;;30.37;;
2638;SDS011;1329;51.384;7.122;2023-01-26T04:38:30;63.13;;;30.10;;
2638;SDS011;1329;51.384;7.122;2023-01-26T04:40:57;61.47;;;31.27;;
2638;SDS011;1329;51.384;7.122;2023-01-26T04:43:24;60.70;;;30.93;;
2638;SDS011;1329;51.384;7.122;2023-01-26T04:45:58;61.07;;;31.70;;
2638;SDS011;1329;51.384;7.122;2023-01-26T04:48:27;63.97;;;30.77;;
2638;SDS011;1329;51.384;7.122;2023-01-26T04:50:57;63.17;;;31.10;;
2638;SDS011;1329;51.384;7.122;2023-01-26T04:53:27;64.60;;;30.80;;
2638;SDS011;1329;51.384;7.122;2023-01-26T04:55:54;61.27;;;31.47;;
2638;SDS011;1329;51.384;7.122;2023-01-26T04:58:21;58.03;;;30.90;;
2638;SDS011;1329;51.384;7.122;2023-01-26T05:00:49;62.57;;;32.60;;
2638;SDS011;1329;51.384;7.122;2023-01-26T05:03:16;67.13;;;32.43;;
2638;SDS011;1329;51.384;7.122;2023-01-26T05:05:43;67.03;;;33.00;;
2638;SDS011;1329;51.384;7.122;2023-01-26T05:08:15;65.20;;;31.33;;
2638;SDS011;1329;51.384;7.122;2023-01-26T05:10:43;61.40;;;30.77;;
2638;SDS011;1329;51.384;7.122;2023-01-26T05:13:10;61.83;;;29.53;;
2638;SDS011;1329;51.384;7.122;2023-01-26T05:15:37;64.00;;;30.73;;
2638;SDS011;1329;51.384;7.122;2023-01-26T05:18:05;61.10;;;30.53;;
2638;SDS011;1329;51.384;7.122;2023-01-26T05:20:32;65.10;;;32.40;;
2638;SDS011;1329;51.384;7.122;2023-01-26T05:22:59;62.63;;;30.47;;
2638;SDS011;1329;51.384;7.122;2023-01-26T05:25:27;63.40;;;32.53;;
2638;SDS011;1329;51.384;7.122;2023-01-26T05:27:54;58.27;;;28.87;;
2638;SDS011;1329;51.384;7.122;2023-01-26T05:30:21;63.30;;;31.10;;
2638;SDS011;1329;51.384;7.122;2023-01-26T05:32:48;60.57;;;29.63;;
2638;SDS011;1329;51.384;7.122;2023-01-26T05:35:15;62.00;;;30.13;;
2638;SDS011;1329;51.384;7.122;2023-01-26T05:37:43;60.47;;;30.87;;
2638;SDS011;1329;51.384;7.122;2023-01-26T05:40:10;62.80;;;30.77;;
2638;SDS011;1329;51.384;7.122;2023-01-26T05:42:40;63.63;;;31.40;;
2638;SDS011;1329;51.384;7.122;2023-01-26T05:45:08;56.70;;;29.33;;
2638;SDS011;1329;51.384;7.122;2023-01-26T05:47:35;58.67;;;29.93;;
2638;SDS011;1329;51.384;7.122;2023-01-26T05:50:02;63.53;;;31.37;;
2638;SDS011;1329;51.384;7.122;2023-01-26T05:52:31;61.97;;;30.57;;
2638;SDS011;1329;51.384;7.122;2023-01-26T05:54:58;59.67;;;30.53;;
2638;SDS011;1329;51.384;7.122;2023-01-26T05:57:25;60.97;;;29.60;;
2638;SDS011;1329;51.384;7.122;2023-01-26T05:59:53;59.07;;;30.80;;
2638;SDS011;1329;51.384;7.122;2023-01-26T06:02:20;56.93;;;28.73;;
2638;SDS011;1329;51.384;7.122;2023-01-26T06:04:47;57.60;;;29.07;;
2638;SDS011;1329;51.384;7.122;2023-01-26T06:07:14;56.57;;;29.13;;
2638;SDS011;1329;51.384;7.122;2023-01-26T06:09:41;53.93;;;27.90;;
2638;SDS011;1329;51.384;7.122;2023-01-26T06:12:13;55.63;;;27.87;;
2638;SDS011;1329;51.384;7.122;2023-01-26T06:14:42;51.60;;;26.60;;
2638;SDS011;1329;51.384;7.122;2023-01-26T06:17:10;54.13;;;27.60;;
2638;SDS011;1329;51.384;7.122;2023-01-26T06:19:38;53.50;;;27.77;;
2638;SDS011;1329;51.384;7.122;2023-01-26T06:22:06;50.47;;;25.93;;
2638;SDS011;1329;51.384;7.122;2023-01-26T06:24:34;49.10;;;25.80;;
2638;SDS011;1329;51.384;7.122;2023-01-26T06:27:01;46.90;;;25.63;;
2638;SDS011;1329;51.384;7.122;2023-01-26T06:29:31;48.37;;;25.50;;
2638;SDS011;1329;51.384;7.122;2023-01-26T06:32:00;47.43;;;25.03;;
2638;SDS011;1329;51.384;7.122;2023-01-26T06:34:29;45.33;;;24.17;;
2638;SDS011;1329;51.384;7.122;2023-01-26T06:37:01;47.23;;;25.27;;
2638;SDS011;1329;51.384;7.122;2023-01-26T06:39:29;49.43;;;25.17;;
2638;SDS011;1329;51.384;7.122;2023-01-26T06:41:56;46.13;;;24.53;;
2638;SDS011;1329;51.384;7.122;2023-01-26T06:44:23;47.53;;;24.67;;
2638;SDS011;1329;51.384;7.122;2023-01-26T06:46:50;41.90;;;23.83;;
2638;SDS011;1329;51.384;7.122;2023-01-26T06:49:18;45.90;;;25.73;;
2638;SDS011;1329;51.384;7.122;2023-01-26T06:51:49;45.73;;;24.83;;
2638;SDS011;1329;51.384;7.122;2023-01-26T06:54:23;44.50;;;23.90;;
2638;SDS011;1329;51.384;7.122;2023-01-26T06:56:50;44.57;;;23.17;;
2638;SDS011;1329;51.384;7.122;2023-01-26T06:59:17;43.03;;;22.73;;
2638;SDS011;1329;51.384;7.122;2023-01-26T07:01:44;42.20;;;23.07;;
2638;SDS011;1329;51.384;7.122;2023-01-26T07:04:13;41.47;;;22.30;;
2638;SDS011;1329;51.384;7.122;2023-01-26T07:06:40;39.47;;;22.23;;
2638;SDS011;1329;51.384;7.122;2023-01-26T07:09:09;45.73;;;23.30;;
2638;SDS011;1329;51.384;7.122;2023-01-26T07:11:37;39.13;;;21.33;;
2638;SDS011;1329;51.384;7.122;2023-01-26T07:14:04;45.10;;;23.50;;
2638;SDS011;1329;51.384;7.122;2023-01-26T07:16:31;42.40;;;22.83;;
2638;SDS011;1329;51.384;7.122;2023-01-26T07:18:58;38.93;;;22.10;;
2638;SDS011;1329;51.384;7.122;2023-01-26T07:21:25;43.20;;;22.83;;
2638;SDS011;1329;51.384;7.122;2023-01-26T07:23:52;43.87;;;23.70;;
2638;SDS011;1329;51.384;7.122;2023-01-26T07:26:22;44.50;;;22.93;;
2638;SDS011;1329;51.384;7.122;2023-01-26T07:28:49;43.03;;;22.70;;
2638;SDS011;1329;51.384;7.122;2023-01-26T07:31:16;40.67;;;22.43;;
2638;SDS011;1329;51.384;7.122;2023-01-26T07:33:43;44.67;;;23.93;;
2638;SDS011;1329;51.384;7.122;2023-01-26T07:36:10;41.20;;;22.13;;
2638;SDS011;1329;51.384;7.122;2023-01-26T07:38:37;37.70;;;20.83;;
2638;SDS011;1329;51.384;7.122;2023-01-26T07:41:04;41.17;;;21.80;;
2638;SDS011;1329;51.384;7.122;2023-01-26T07:43:35;41.63;;;22.27;;
2638;SDS011;1329;51.384;7.122;2023-01-26T07:46:03;37.93;;;21.40;;
2638;SDS011;1329;51.384;7.122;2023-01-26T07:48:31;38.13;;;21.47;;
2638;SDS011;1329;51.384;7.122;2023-01-26T07:50:58;38.60;;;21.47;;
2638;SDS011;1329;51.384;7.122;2023-01-26T07:53:27;38.40;;;21.77;;
2638;SDS011;1329;51.384;7.122;2023-01-26T07:56:07;36.37;;;21.33;;
2638;SDS011;1329;51.384;7.122;2023-01-26T07:58:37;41.47;;;22.20;;
2638;SDS011;1329;51.384;7.122;2023-01-26T08:01:05;39.07;;;21.17;;
2638;SDS011;1329;51.384;7.122;2023-01-26T08:03:34;36.00;;;20.07;;
2638;SDS011;1329;51.384;7.122;2023-01-26T08:06:02;37.30;;;20.77;;
2638;SDS011;1329;51.384;7.122;2023-01-26T08:08:30;40.30;;;22.30;;
2638;SDS011;1329;51.384;7.122;2023-01-26T08:10:58;39.73;;;21.83;;
2638;SDS011;1329;51.384;7.122;2023-01-26T08:13:26;36.50;;;20.53;;
2638;SDS011;1329;51.384;7.122;2023-01-26T08:15:57;39.20;;;23.17;;
2638;SDS011;1329;51.384;7.122;2023-01-26T08:18:26;36.93;;;21.20;;
2638;SDS011;1329;51.384;7.122;2023-01-26T08:20:53;43.97;;;22.87;;
2638;SDS011;1329;51.384;7.122;2023-01-26T08:23:21;44.17;;;23.80;;
2638;SDS011;1329;51.384;7.122;2023-01-26T08:25:54;42.43;;;23.17;;
2638;SDS011;1329;51.384;7.122;2023-01-26T08:28:26;41.47;;;23.43;;
2638;SDS011;1329;51.384;7.122;2023-01-26T08:30:54;40.37;;;22.30;;
2638;SDS011;1329;51.384;7.122;2023-01-26T08:33:21;43.60;;;23.00;;
2638;SDS011;1329;51.384;7.122;2023-01-26T08:35:49;39.53;;;22.07;;
2638;SDS011;1329;51.384;7.122;2023-01-26T08:38:16;37.80;;;21.13;;
2638;SDS011;1329;51.384;7.122;2023-01-26T08:40:43;38.37;;;21.30;;
2638;SDS011;1329;51.384;7.122;2023-01-26T08:43:10;42.17;;;22.43;;
2638;SDS011;1329;51.384;7.122;2023-01-26T08:45:36;39.83;;;22.87;;
2638;SDS011;1329;51.384;7.122;2023-01-26T08:48:05;40.50;;;22.47;;
2638;SDS011;1329;51.384;7.122;2023-01-26T08:50:32;39.27;;;21.80;;
2638;SDS011;1329;51.384;7.122;2023-01-26T08:52:59;40.77;;;21.50;;
2638;SDS011;1329;51.384;7.122;2023-01-26T08:55:26;39.00;;;21.30;;
2638;SDS011;1329;51.384;7.122;2023-01-26T08:57:53;40.40;;;22.10;;
2638;SDS011;1329;51.384;7.122;2023-01-26T09:00:21;41.93;;;23.40;;
2638;SDS011;1329;51.384;7.122;2023-01-26T09:02:49;42.33;;;23.27;;
2638;SDS011;1329;51.384;7.122;2023-01-26T09:05:20;42.20;;;23.83;;
2638;SDS011;1329;51.384;7.122;2023-01-26T09:07:46;41.60;;;22.60;;
2638;SDS011;1329;51.384;7.122;2023-01-26T09:10:13;41.03;;;22.80;;
2638;SDS011;1329;51.384;7.122;2023-01-26T09:12:41;43.23;;;22.90;;
2638;SDS011;1329;51.384;7.122;2023-01-26T09:15:08;42.63;;;22.03;;
2638;SDS011;1329;51.384;7.122;2023-01-26T09:17:36;44.20;;;23.50;;
2638;SDS011;1329;51.384;7.122;2023-01-26T09:20:03;43.20;;;23.03;;
2638;SDS011;1329;51.384;7.122;2023-01-26T09:22:33;44.13;;;24.07;;
2638;SDS011;1329;51.384;7.122;2023-01-26T09:25:00;45.17;;;23.87;;
2638;SDS011;1329;51.384;7.122;2023-01-26T09:27:27;44.23;;;24.47;;
2638;SDS011;1329;51.384;7.122;2023-01-26T09:29:54;47.13;;;24.83;;
2638;SDS011;1329;51.384;7.122;2023-01-26T09:32:21;42.37;;;23.47;;
2638;SDS011;1329;51.384;7.122;2023-01-26T09:34:48;44.33;;;23.53;;
2638;SDS011;1329;51.384;7.122;2023-01-26T09:37:15;46.53;;;24.63;;
2638;SDS011;1329;51.384;7.122;2023-01-26T09:39:43;45.30;;;23.83;;
2638;SDS011;1329;51.384;7.122;2023-01-26T09:42:16;48.07;;;24.67;;
2638;SDS011;1329;51.384;7.122;2023-01-26T09:44:58;49.17;;;24.97;;
2638;SDS011;1329;51.384;7.122;2023-01-26T09:47:44;46.63;;;24.50;;
2638;SDS011;1329;51.384;7.122;2023-01-26T09:50:25;46.57;;;24.57;;
2638;SDS011;1329;51.384;7.122;2023-01-26T09:52:57;47.73;;;24.57;;
2638;SDS011;1329;51.384;7.122;2023-01-26T09:55:29;47.77;;;24.57;;
2638;SDS011;1329;51.384;7.122;2023-01-26T09:57:57;48.60;;;24.53;;
2638;SDS011;1329;51.384;7.122;2023-01-26T10:00:29;47.27;;;23.77;;
2638;SDS011;1329;51.384;7.122;2023-01-26T10:03:08;46.60;;;24.23;;
2638;SDS011;1329;51.384;7.122;2023-01-26T10:05:44;46.40;;;23.03;;
2638;SDS011;1329;51.384;7.122;2023-01-26T10:08:17;48.40;;;23.50;;
2638;SDS011;1329;51.384;7.122;2023-01-26T10:10:49;47.57;;;23.43;;
2638;SDS011;1329;51.384;7.122;2023-01-26T10:13:20;45.80;;;23.63;;
2638;SDS011;1329;51.384;7.122;2023-01-26T10:15:49;47.27;;;23.37;;
2638;SDS011;1329;51.384;7.122;2023-01-26T10:18:21;44.97;;;23.73;;
2638;SDS011;1329;51.384;7.122;2023-01-26T10:20:54;45.90;;;23.73;;
2638;SDS011;1329;51.384;7.122;2023-01-26T10:23:27;44.57;;;22.83;;
2638;SDS011;1329;51.384;7.122;2023-01-26T10:26:01;41.07;;;21.30;;
2638;SDS011;1329;51.384;7.122;2023-01-26T10:28:37;43.27;;;22.87;;
2638;SDS011;1329;51.384;7.122;2023-01-26T10:31:08;42.60;;;22.30;;
2638;SDS011;1329;51.384;7.122;2023-01-26T10:33:41;38.83;;;20.93;;
2638;SDS011;1329;51.384;7.122;2023-01-26T10:36:14;39.63;;;21.23;;
2638;SDS011;1329;51.384;7.122;2023-01-26T10:38:42;39.73;;;21.97;;
2638;SDS011;1329;51.384;7.122;2023-01-26T10:41:27;35.87;;;20.43;;
2638;SDS011;1329;51.384;7.122;2023-01-26T10:43:55;37.57;;;20.33;;
2638;SDS011;1329;51.384;7.122;2023-01-26T10:46:24;37.73;;;21.03;;
2638;SDS011;1329;51.384;7.122;2023-01-26T10:48:55;39.93;;;20.70;;
2638;SDS011;1329;51.384;7.122;2023-01-26T10:51:26;37.70;;;20.03;;
2638;SDS011;1329;51.384;7.122;2023-01-26T10:54:18;34.90;;;19.43;;
2638;SDS011;1329;51.384;7.122;2023-01-26T10:56:49;33.73;;;19.77;;
2638;SDS011;1329;51.384;7.122;2023-01-26T10:59:30;32.93;;;19.00;;
2638;SDS011;1329;51.384;7.122;2023-01-26T11:02:00;33.03;;;18.83;;
2638;SDS011;1329;51.384;7.122;2023-01-26T11:05:00;30.43;;;17.73;;
2638;SDS011;1329;51.384;7.122;2023-01-26T11:07:47;30.20;;;17.97;;
2638;SDS011;1329;51.384;7.122;2023-01-26T11:10:17;32.00;;;18.70;;
2638;SDS011;1329;51.384;7.122;2023-01-26T11:12:49;30.57;;;17.17;;
2638;SDS011;1329;51.384;7.122;2023-01-26T11:15:17;31.13;;;17.33;;
2638;SDS011;1329;51.384;7.122;2023-01-26T11:17:48;31.37;;;18.03;;
2638;SDS011;1329;51.384;7.122;2023-01-26T11:20:38;28.07;;;16.47;;
2638;SDS011;1329;51.384;7.122;2023-01-26T11:23:16;30.60;;;17.40;;
2638;SDS011;1329;51.384;7.122;2023-01-26T11:26:02;29.23;;;16.83;;
2638;SDS011;1329;51.384;7.122;2023-01-26T11:29:00;28.77;;;16.90;;
2638;SDS011;1329;51.384;7.122;2023-01-26T11:31:48;26.67;;;16.50;;
2638;SDS011;1329;51.384;7.122;2023-01-26T11:34:27;26.93;;;16.23;;
2638;SDS011;1329;51.384;7.122;2023-01-26T11:37:05;29.17;;;16.77;;
2638;SDS011;1329;51.384;7.122;2023-01-26T11:40:12;25.40;;;15.53;;
2638;SDS011;1329;51.384;7.122;2023-01-26T11:43:02;26.87;;;16.13;;
2638;SDS011;1329;51.384;7.122;2023-01-26T11:46:02;24.50;;;15.13;;
2638;SDS011;1329;51.384;7.122;2023-01-26T11:48:44;24.67;;;15.60;;
2638;SDS011;1329;51.384;7.122;2023-01-26T11:51:27;28.30;;;15.90;;
2638;SDS011;1329;51.384;7.122;2023-01-26T11:54:22;25.27;;;14.93;;
2638;SDS011;1329;51.384;7.122;2023-01-26T11:57:03;23.60;;;15.70;;
2638;SDS011;1329;51.384;7.122;2023-01-26T11:59:42;25.53;;;15.37;;
2638;SDS011;1329;51.384;7.122;2023-01-26T12:02:20;25.13;;;15.00;;
2638;SDS011;1329;51.384;7.122;2023-01-26T12:04:54;23.00;;;14.80;;
2638;SDS011;1329;51.384;7.122;2023-01-26T12:07:28;22.37;;;14.37;;
2638;SDS011;1329;51.384;7.122;2023-01-26T12:09:59;23.80;;;15.57;;
2638;SDS011;1329;51.384;7.122;2023-01-26T12:12:29;25.30;;;15.30;;
2638;SDS011;1329;51.384;7.122;2023-01-26T12:15:03;25.30;;;15.53;;
2638;SDS011;1329;51.384;7.122;2023-01-26T12:17:41;24.80;;;14.90;;
2638;SDS011;1329;51.384;7.122;2023-01-26T12:20:18;22.47;;;14.63;;
2638;SDS011;1329;51.384;7.122;2023-01-26T12:22:54;23.07;;;14.30;;
2638;SDS011;1329;51.384;7.122;2023-01-26T12:25:31;22.37;;;13.40;;
2638;SDS011;1329;51.384;7.122;2023-01-26T12:28:02;21.13;;;13.83;;
2638;SDS011;1329;51.384;7.122;2023-01-26T12:30:40;22.13;;;13.90;;
2638;SDS011;1329;51.384;7.122;2023-01-26T12:33:17;22.27;;;14.03;;
2638;SDS011;1329;51.384;7.122;2023-01-26T12:35:49;23.80;;;14.60;;
2638;SDS011;1329;51.384;7.122;2023-01-26T12:38:33;22.53;;;14.87;;
2638;SDS011;1329;51.384;7.122;2023-01-26T12:41:11;22.20;;;14.80;;
2638;SDS011;1329;51.384;7.122;2023-01-26T12:43:51;23.13;;;14.67;;
2638;SDS011;1329;51.384;7.122;2023-01-26T12:46:32;20.67;;;13.83;;
2638;SDS011;1329;51.384;7.122;2023-01-26T12:49:09;18.93;;;13.30;;
2638;SDS011;1329;51.384;7.122;2023-01-26T12:51:43;19.63;;;12.80;;
2638;SDS011;1329;51.384;7.122;2023-01-26T12:54:15;23.27;;;14.53;;
2638;SDS011;1329;51.384;7.122;2023-01-26T12:56:48;19.83;;;13.60;;
2638;SDS011;1329;51.384;7.122;2023-01-26T12:59:20;18.63;;;12.57;;
2638;SDS011;1329;51.384;7.122;2023-01-26T13:01:55;19.20;;;13.30;;
2638;SDS011;1329;51.384;7.122;2023-01-26T13:04:23;21.27;;;14.37;;
2638;SDS011;1329;51.384;7.122;2023-01-26T13:07:00;20.13;;;13.50;;
2638;SDS011;1329;51.384;7.122;2023-01-26T13:13:24;18.63;;;12.47;;
2638;SDS011;1329;51.384;7.122;2023-01-26T13:19:00;15.47;;;10.93;;
2638;SDS011;1329;51.384;7.122;2023-01-26T13:21:40;16.17;;;11.87;;
2638;SDS011;1329;51.384;7.122;2023-01-26T13:29:58;13.50;;;10.43;;
2638;SDS011;1329;51.384;7.122;2023-01-26T13:35:30;14.93;;;10.13;;
2638;SDS011;1329;51.384;7.122;2023-01-26T13:38:01;12.53;;;9.73;;
2638;SDS011;1329;51.384;7.122;2023-01-26T13:40:39;13.43;;;10.10;;
2638;SDS011;1329;51.384;7.122;2023-01-26T13:43:12;13.20;;;10.50;;
2638;SDS011;1329;51.384;7.122;2023-01-26T13:45:49;13.47;;;10.30;;
2638;SDS011;1329;51.384;7.122;2023-01-26T13:48:43;13.00;;;9.67;;
2638;SDS011;1329;51.384;7.122;2023-01-26T13:51:15;12.33;;;10.13;;
2638;SDS011;1329;51.384;7.122;2023-01-26T13:53:47;13.03;;;10.20;;
2638;SDS011;1329;51.384;7.122;2023-01-26T13:56:23;12.40;;;9.53;;
2638;SDS011;1329;51.384;7.122;2023-01-26T13:59:04;12.83;;;9.90;;
2638;SDS011;1329;51.384;7.122;2023-01-26T14:01:42;11.40;;;10.00;;
2638;SDS011;1329;51.384;7.122;2023-01-26T14:04:12;14.90;;;11.17;;
2638;SDS011;1329;51.384;7.122;2023-01-26T14:06:41;15.37;;;10.57;;
2638;SDS011;1329;51.384;7.122;2023-01-26T14:09:13;14.20;;;10.80;;
2638;SDS011;1329;51.384;7.122;2023-01-26T14:11:41;15.17;;;10.70;;
2638;SDS011;1329;51.384;7.122;2023-01-26T14:14:16;14.13;;;10.80;;
2638;SDS011;1329;51.384;7.122;2023-01-26T14:16:49;16.57;;;11.53;;
2638;SDS011;1329;51.384;7.122;2023-01-26T14:19:17;16.40;;;11.80;;
2638;SDS011;1329;51.384;7.122;2023-01-26T14:21:47;14.47;;;11.43;;
2638;SDS011;1329;51.384;7.122;2023-01-26T14:24:18;17.40;;;11.43;;
2638;SDS011;1329;51.384;7.122;2023-01-26T14:26:52;16.60;;;11.63;;
2638;SDS011;1329;51.384;7.122;2023-01-26T14:29:20;17.10;;;12.47;;
2638;SDS011;1329;51.384;7.122;2023-01-26T14:31:50;17.00;;;12.47;;
2638;SDS011;1329;51.384;7.122;2023-01-26T14:34:19;16.63;;;11.37;;
2638;SDS011;1329;51.384;7.122;2023-01-26T14:36:47;18.90;;;12.77;;
2638;SDS011;1329;51.384;7.122;2023-01-26T14:39:31;15.70;;;11.50;;
2638;SDS011;1329;51.384;7.122;2023-01-26T14:41:58;19.17;;;12.77;;
2638;SDS011;1329;51.384;7.122;2023-01-26T14:44:26;17.20;;;12.17;;
2638;SDS011;1329;51.384;7.122;2023-01-26T14:46:54;20.43;;;13.90;;
2638;SDS011;1329;51.384;7.122;2023-01-26T14:49:29;22.10;;;14.20;;
2638;SDS011;1329;51.384;7.122;2023-01-26T14:52:13;18.40;;;12.43;;
2638;SDS011;1329;51.384;7.122;2023-01-26T14:54:49;18.40;;;13.10;;
2638;SDS011;1329;51.384;7.122;2023-01-26T14:57:19;21.53;;;13.50;;
2638;SDS011;1329;51.384;7.122;2023-01-26T14:59:48;22.40;;;14.33;;
2638;SDS011;1329;51.384;7.122;2023-01-26T15:02:19;20.50;;;13.50;;
2638;SDS011;1329;51.384;7.122;2023-01-26T15:04:51;20.37;;;13.57;;
2638;SDS011;1329;51.384;7.122;2023-01-26T15:07:31;23.37;;;14.03;;
2638;SDS011;1329;51.384;7.122;2023-01-26T15:10:20;22.60;;;13.93;;
2638;SDS011;1329;51.384;7.122;2023-01-26T15:13:00;23.87;;;13.90;;
2638;SDS011;1329;51.384;7.122;2023-01-26T15:15:32;24.00;;;14.47;;
2638;SDS011;1329;51.384;7.122;2023-01-26T15:18:02;27.87;;;15.03;;
2638;SDS011;1329;51.384;7.122;2023-01-26T15:20:41;23.80;;;15.27;;
2638;SDS011;1329;51.384;7.122;2023-01-26T15:26:05;24.90;;;14.83;;
2638;SDS011;1329;51.384;7.122;2023-01-26T15:28:33;23.53;;;14.63;;
2638;SDS011;1329;51.384;7.122;2023-01-26T15:31:01;23.43;;;15.60;;
2638;SDS011;1329;51.384;7.122;2023-01-26T15:33:45;28.47;;;15.63;;
2638;SDS011;1329;51.384;7.122;2023-01-26T15:36:25;30.70;;;16.13;;